createdAt,value
2024-01-24T00:00:34.795Z,25.93
2024-01-24T00:01:34.737Z,25.91
2024-01-24T00:02:34.697Z,25.90
2024-01-24T00:03:34.780Z,25.89
2024-01-24T00:04:34.693Z,25.91
2024-01-24T00:57:57.095Z,25.80
2024-01-24T00:58:34.984Z,25.79
2024-01-24T00:59:34.989Z,25.77
2024-01-24T01:00:35.123Z,25.76
2024-01-24T01:01:35.549Z,25.80
2024-01-24T01:02:37.963Z,25.76
2024-01-24T01:03:35.096Z,25.80
2024-01-24T01:04:35.105Z,25.83
2024-01-24T01:05:35.052Z,25.80
2024-01-24T01:06:35.108Z,25.81
2024-01-24T01:07:35.072Z,25.79
2024-01-24T01:08:35.086Z,25.79
2024-01-24T01:09:35.993Z,25.78
2024-01-24T01:10:37.963Z,25.81
2024-01-24T01:11:35.067Z,25.78
2024-01-24T01:12:36.019Z,25.78
2024-01-24T01:13:35.094Z,25.75
2024-01-24T01:14:35.065Z,25.82
2024-01-24T01:15:35.094Z,25.84
2024-01-24T01:16:35.065Z,25.81
2024-01-24T01:17:35.098Z,25.82
2024-01-24T01:18:35.104Z,25.83
2024-01-24T01:19:35.127Z,25.81
2024-01-24T01:20:35.071Z,25.78
2024-01-24T01:21:38.049Z,25.74
2024-01-24T01:22:35.494Z,25.73
2024-01-24T01:23:41.964Z,25.77
2024-01-24T01:24:35.137Z,25.77
2024-01-24T01:25:35.085Z,25.80
2024-01-24T01:26:35.085Z,25.66
2024-01-24T01:27:35.113Z,25.72
2024-01-24T01:28:35.091Z,25.73
2024-01-24T01:29:38.008Z,25.75
2024-01-24T01:30:35.124Z,25.67
2024-01-24T01:31:41.968Z,25.70
2024-01-24T01:32:35.429Z,25.73
2024-01-24T01:33:35.183Z,25.77
2024-01-24T01:34:35.194Z,25.73
2024-01-24T01:35:35.092Z,25.67
2024-01-24T01:36:37.988Z,25.77
2024-01-24T01:37:35.125Z,25.70
2024-01-24T01:38:35.478Z,25.73
2024-01-24T01:39:35.205Z,25.77
2024-01-24T01:40:35.111Z,25.77
2024-01-24T01:41:35.125Z,25.74
2024-01-24T01:42:35.134Z,25.78
2024-01-24T01:43:35.107Z,25.69
2024-01-24T01:44:35.122Z,25.78
2024-01-24T01:45:35.156Z,25.73
2024-01-24T01:46:35.125Z,25.74
2024-01-24T01:47:35.191Z,25.70
2024-01-24T01:48:35.214Z,25.70
2024-01-24T01:49:35.245Z,25.70
2024-01-24T01:50:35.124Z,25.74
2024-01-24T01:51:35.178Z,25.71
2024-01-24T01:52:35.139Z,25.75
2024-01-24T01:53:41.981Z,25.66
2024-01-24T01:54:35.204Z,25.71
2024-01-24T01:55:35.132Z,25.77
2024-01-24T01:56:35.975Z,25.71
2024-01-24T01:57:35.214Z,25.71
2024-01-24T01:58:37.986Z,25.69
2024-01-24T01:59:35.160Z,25.69
2024-01-24T02:00:35.201Z,25.70
2024-01-24T02:01:42.139Z,25.73
2024-01-24T02:02:35.171Z,25.75
2024-01-24T02:03:35.244Z,25.71
2024-01-24T02:04:35.175Z,25.70
2024-01-24T02:05:38.319Z,25.69
2024-01-24T02:06:35.313Z,25.74
2024-01-24T02:07:35.311Z,25.70
2024-01-24T02:08:37.981Z,25.66
2024-01-24T02:09:42.030Z,25.69
2024-01-24T02:10:35.523Z,25.75
2024-01-24T02:11:35.165Z,25.70
2024-01-24T02:12:35.256Z,25.67
2024-01-24T02:13:35.171Z,25.70
2024-01-24T02:14:35.178Z,25.71
2024-01-24T02:15:38.039Z,25.74
2024-01-24T02:16:35.188Z,25.70
2024-01-24T02:17:35.527Z,25.74
2024-01-24T02:18:35.242Z,25.72
2024-01-24T02:19:35.232Z,25.70
2024-01-24T02:20:35.178Z,25.74
2024-01-24T02:21:35.226Z,25.71
2024-01-24T02:22:35.192Z,25.73
2024-01-24T02:23:35.184Z,25.67
2024-01-24T02:24:35.243Z,25.70
2024-01-24T02:25:37.989Z,25.66
2024-01-24T02:26:35.193Z,25.70
2024-01-24T02:27:35.232Z,25.69
2024-01-24T02:28:37.988Z,25.71
2024-01-24T02:29:35.492Z,25.70
2024-01-24T02:30:35.237Z,25.62
2024-01-24T02:31:35.210Z,25.71
2024-01-24T02:32:35.207Z,25.65
2024-01-24T02:33:35.282Z,25.69
2024-01-24T02:34:35.257Z,25.69
2024-01-24T02:35:35.210Z,25.67
2024-01-24T02:36:35.247Z,25.66
2024-01-24T02:37:35.229Z,25.63
2024-01-24T02:38:35.225Z,25.71
2024-01-24T02:39:35.246Z,25.67
2024-01-24T02:40:56.226Z,25.64
2024-01-24T02:41:35.228Z,25.68
2024-01-24T02:42:35.271Z,25.67
2024-01-24T02:43:35.232Z,25.70
2024-01-24T02:44:35.235Z,25.69
2024-01-24T02:45:35.295Z,25.67
2024-01-24T02:46:35.240Z,25.66
2024-01-24T02:47:35.269Z,25.66
2024-01-24T02:48:35.384Z,25.66
2024-01-24T02:49:35.368Z,25.73
2024-01-24T02:50:35.253Z,25.67
2024-01-24T02:51:35.290Z,25.66
2024-01-24T02:52:35.249Z,25.63
2024-01-24T02:53:35.249Z,25.63
2024-01-24T02:54:35.504Z,25.69
2024-01-24T02:55:41.995Z,25.66
2024-01-24T02:56:35.253Z,25.66
2024-01-24T02:57:35.303Z,25.63
2024-01-24T02:58:35.260Z,25.66
2024-01-24T02:59:35.256Z,25.62
2024-01-24T03:00:35.292Z,25.65
2024-01-24T03:01:35.286Z,25.62
2024-01-24T03:02:35.258Z,25.62
2024-01-24T03:03:35.588Z,25.59
2024-01-24T03:04:35.335Z,25.60
2024-01-24T03:05:35.302Z,25.62
2024-01-24T03:06:35.367Z,25.58
2024-01-24T03:07:36.035Z,25.62
2024-01-24T03:08:35.260Z,25.59
2024-01-24T03:09:35.326Z,25.59
2024-01-24T03:10:35.260Z,25.62
2024-01-24T03:11:35.267Z,25.63
2024-01-24T03:12:35.303Z,25.59
2024-01-24T03:13:35.288Z,25.60
2024-01-24T03:14:35.272Z,25.59
2024-01-24T03:15:38.059Z,25.59
2024-01-24T03:16:35.277Z,25.60
2024-01-24T03:17:35.430Z,25.59
2024-01-24T03:18:35.379Z,25.61
2024-01-24T03:19:35.380Z,25.63
2024-01-24T03:20:35.278Z,25.61
2024-01-24T03:21:35.395Z,25.63
2024-01-24T03:22:35.294Z,25.57
2024-01-24T03:23:38.008Z,25.59
2024-01-24T03:24:35.317Z,25.62
2024-01-24T03:25:35.299Z,25.61
2024-01-24T03:26:35.299Z,25.61
2024-01-24T03:27:35.418Z,25.59
2024-01-24T03:28:36.035Z,25.57
2024-01-24T03:29:38.014Z,25.59
2024-01-24T03:30:35.346Z,25.51
2024-01-24T03:31:35.310Z,25.65
2024-01-24T03:32:35.365Z,25.63
2024-01-24T03:33:35.313Z,25.63
2024-01-24T03:34:35.341Z,25.58
2024-01-24T03:35:35.314Z,25.60
2024-01-24T03:36:35.385Z,25.56
2024-01-24T03:37:35.341Z,25.58
2024-01-24T03:38:35.320Z,25.60
2024-01-24T03:39:35.349Z,25.62
2024-01-24T03:40:42.025Z,25.62
2024-01-24T03:41:35.326Z,25.57
2024-01-24T03:42:35.582Z,25.61
2024-01-24T03:43:36.077Z,25.57
2024-01-24T03:44:35.335Z,25.59
2024-01-24T03:45:35.391Z,25.61
2024-01-24T03:46:35.535Z,25.58
2024-01-24T03:47:35.355Z,25.66
2024-01-24T03:48:35.396Z,25.66
2024-01-24T03:49:35.390Z,25.63
2024-01-24T03:50:35.347Z,25.60
2024-01-24T03:51:35.384Z,25.63
2024-01-24T03:52:35.350Z,25.58
2024-01-24T03:53:35.377Z,25.57
2024-01-24T03:54:35.447Z,25.64
2024-01-24T03:55:35.348Z,25.67
2024-01-24T03:56:35.362Z,25.67
2024-01-24T03:57:35.407Z,25.66
2024-01-24T03:58:36.024Z,25.63
2024-01-24T03:59:36.023Z,25.60
2024-01-24T04:00:35.418Z,25.60
2024-01-24T04:01:35.402Z,25.59
2024-01-24T04:02:35.405Z,25.63
2024-01-24T04:03:35.505Z,25.62
2024-01-24T04:04:42.055Z,25.62
2024-01-24T04:05:35.490Z,25.65
2024-01-24T04:06:35.567Z,25.63
2024-01-24T04:07:35.549Z,25.62
2024-01-24T04:08:35.539Z,25.62
2024-01-24T04:09:35.655Z,25.60
2024-01-24T04:10:35.595Z,25.59
2024-01-24T04:11:35.648Z,25.65
2024-01-24T04:12:35.743Z,25.62
2024-01-24T04:13:35.745Z,25.62
2024-01-24T04:14:42.798Z,25.68
2024-01-24T04:15:45.304Z,25.60
2024-01-24T04:16:43.800Z,25.64
2024-01-24T04:17:43.962Z,25.63
2024-01-24T04:18:43.920Z,25.60
2024-01-24T04:19:43.868Z,25.62
2024-01-24T04:20:46.441Z,25.60
2024-01-24T04:21:43.834Z,25.59
2024-01-24T04:22:43.912Z,25.61
2024-01-24T04:23:43.805Z,25.58
2024-01-24T04:24:43.887Z,25.61
2024-01-24T04:25:43.820Z,25.54
2024-01-24T04:26:44.399Z,25.55
2024-01-24T04:27:43.884Z,25.55
2024-01-24T04:28:43.821Z,25.58
2024-01-24T04:29:46.501Z,25.58
2024-01-24T04:30:53.664Z,25.60
2024-01-24T04:32:00.782Z,25.70
2024-01-24T04:33:01.914Z,25.63
2024-01-24T04:34:01.971Z,25.63
2024-01-24T04:35:01.818Z,25.63
2024-01-24T04:36:01.777Z,25.63
2024-01-24T04:37:01.786Z,25.61
2024-01-24T04:38:01.780Z,25.63
2024-01-24T04:39:01.784Z,25.64
2024-01-24T04:40:01.849Z,25.63
2024-01-24T04:41:01.792Z,25.64
2024-01-24T04:42:08.478Z,25.59
2024-01-24T04:43:01.838Z,25.64
2024-01-24T04:44:01.777Z,25.60
2024-01-24T04:45:01.796Z,25.67
2024-01-24T04:46:01.821Z,25.60
2024-01-24T04:47:01.888Z,25.59
2024-01-24T04:48:01.828Z,25.60
2024-01-24T04:49:01.834Z,25.58
2024-01-24T04:50:01.829Z,25.62
2024-01-24T04:51:01.788Z,25.63
2024-01-24T04:52:01.814Z,25.60
2024-01-24T04:53:01.789Z,25.62
2024-01-24T04:54:01.799Z,25.58
2024-01-24T04:55:01.815Z,25.63
2024-01-24T04:56:01.814Z,25.56
2024-01-24T04:57:01.797Z,25.62
2024-01-24T04:58:01.839Z,25.64
2024-01-24T04:59:01.808Z,25.60
2024-01-24T05:00:03.090Z,25.55
2024-01-24T05:01:02.079Z,25.63
2024-01-24T05:02:01.957Z,25.62
2024-01-24T05:03:02.001Z,25.58
2024-01-24T05:04:02.143Z,25.60
2024-01-24T05:05:02.024Z,25.62
2024-01-24T05:06:07.670Z,25.60
2024-01-24T05:07:02.103Z,25.59
2024-01-24T05:08:02.057Z,25.64
2024-01-24T05:09:08.895Z,25.63
2024-01-24T05:10:02.117Z,25.60
2024-01-24T05:11:02.903Z,25.64
2024-01-24T05:12:02.092Z,25.60
2024-01-24T05:13:02.097Z,25.63
2024-01-24T05:14:02.070Z,25.58
2024-01-24T05:15:02.070Z,25.63
2024-01-24T05:16:02.067Z,25.63
2024-01-24T05:17:02.402Z,25.59
2024-01-24T05:18:02.973Z,25.60
2024-01-24T05:19:02.170Z,25.56
2024-01-24T05:20:02.078Z,25.60
2024-01-24T05:21:02.072Z,25.60
2024-01-24T05:22:02.063Z,25.60
2024-01-24T05:23:02.067Z,25.62
2024-01-24T05:24:02.430Z,25.64
2024-01-24T05:25:02.112Z,25.62
2024-01-24T05:26:02.102Z,25.62
2024-01-24T05:27:08.935Z,25.60
2024-01-24T05:28:02.115Z,25.62
2024-01-24T05:29:02.122Z,25.62
2024-01-24T05:30:11.808Z,25.62
2024-01-24T05:31:02.161Z,25.63
2024-01-24T05:32:08.904Z,25.62
2024-01-24T05:33:02.993Z,25.59
2024-01-24T05:34:02.209Z,25.60
2024-01-24T05:35:02.221Z,25.59
2024-01-24T05:36:02.162Z,25.58
2024-01-24T05:37:02.208Z,25.63
2024-01-24T05:38:02.150Z,25.60
2024-01-24T05:39:04.906Z,25.58
2024-01-24T05:40:02.348Z,25.60
2024-01-24T05:41:02.903Z,25.62
2024-01-24T05:42:02.145Z,25.58
2024-01-24T05:43:02.310Z,25.59
2024-01-24T05:44:02.142Z,25.60
2024-01-24T05:45:02.147Z,25.58
2024-01-24T05:46:02.998Z,25.59
2024-01-24T05:47:02.150Z,25.62
2024-01-24T05:48:02.319Z,25.63
2024-01-24T05:49:02.796Z,25.64
2024-01-24T05:50:02.150Z,25.63
2024-01-24T05:51:02.146Z,25.61
2024-01-24T05:52:08.993Z,25.68
2024-01-24T05:53:02.153Z,25.65
2024-01-24T05:54:02.167Z,25.61
2024-01-24T05:55:02.994Z,25.63
2024-01-24T05:56:02.153Z,25.64
2024-01-24T05:57:02.158Z,25.56
2024-01-24T05:58:02.210Z,25.63
2024-01-24T05:59:02.179Z,25.62
2024-01-24T06:00:04.944Z,25.63
2024-01-24T06:01:02.251Z,25.62
2024-01-24T06:02:02.214Z,25.62
2024-01-24T06:03:02.161Z,25.64
2024-01-24T06:04:02.235Z,25.58
2024-01-24T06:05:02.236Z,25.62
2024-01-24T06:06:02.263Z,25.60
2024-01-24T06:07:02.343Z,25.59
2024-01-24T06:08:02.170Z,25.59
2024-01-24T06:09:02.197Z,25.63
2024-01-24T06:10:02.184Z,25.62
2024-01-24T06:11:02.187Z,25.59
2024-01-24T06:12:02.184Z,25.62
2024-01-24T06:13:04.925Z,25.65
2024-01-24T06:14:02.172Z,25.60
2024-01-24T06:15:08.940Z,25.62
2024-01-24T06:16:02.205Z,25.62
2024-01-24T06:17:02.189Z,25.60
2024-01-24T06:18:02.202Z,25.62
2024-01-24T06:19:02.273Z,25.60
2024-01-24T06:20:02.183Z,25.62
2024-01-24T06:21:02.202Z,25.61
2024-01-24T06:22:02.485Z,25.61
2024-01-24T06:23:02.184Z,25.62
2024-01-24T06:24:02.185Z,25.70
2024-01-24T06:25:02.249Z,25.59
2024-01-24T06:26:02.437Z,25.63
2024-01-24T06:27:02.478Z,25.59
2024-01-24T06:28:02.509Z,25.61
2024-01-24T06:29:02.507Z,25.63
2024-01-24T06:30:18.249Z,25.63
2024-01-24T06:31:02.595Z,25.64
2024-01-24T06:32:02.528Z,25.69
2024-01-24T06:33:02.963Z,26.02
2024-01-24T06:34:02.660Z,26.03
2024-01-24T06:35:02.536Z,26.10
2024-01-24T06:36:02.532Z,26.07
2024-01-24T06:37:02.734Z,26.10
2024-01-24T06:38:02.618Z,26.06
2024-01-24T06:39:04.450Z,26.36
2024-01-24T06:40:02.553Z,26.53
2024-01-24T06:41:02.550Z,26.66
2024-01-24T06:42:02.544Z,26.68
2024-01-24T06:43:02.952Z,26.84
2024-01-24T06:44:02.551Z,26.85
2024-01-24T06:45:02.549Z,26.99
2024-01-24T06:46:02.631Z,27.27
2024-01-24T06:47:02.589Z,27.22
2024-01-24T06:48:02.992Z,27.22
2024-01-24T06:49:02.693Z,27.56
2024-01-24T06:50:02.986Z,27.72
2024-01-24T06:51:02.945Z,27.85
2024-01-24T06:52:02.562Z,27.70
2024-01-24T06:53:02.566Z,27.81
2024-01-24T06:54:02.572Z,28.00
2024-01-24T06:55:03.005Z,28.24
2024-01-24T06:56:02.572Z,28.30
2024-01-24T06:57:03.436Z,28.40
2024-01-24T06:58:04.976Z,28.58
2024-01-24T06:59:02.955Z,28.70
2024-01-24T07:00:02.571Z,27.80
2024-01-24T07:01:03.655Z,27.97
2024-01-24T07:02:06.674Z,27.60
2024-01-24T07:03:03.688Z,27.47
2024-01-24T07:04:02.684Z,27.27
2024-01-24T07:05:03.192Z,27.36
2024-01-24T07:06:02.957Z,27.28
2024-01-24T07:07:02.654Z,27.37
2024-01-24T07:08:02.953Z,27.37
2024-01-24T07:09:02.629Z,27.81
2024-01-24T07:10:02.667Z,27.55
2024-01-24T07:11:02.951Z,28.39
2024-01-24T07:12:02.629Z,28.68
2024-01-24T07:13:02.795Z,27.80
2024-01-24T07:14:02.655Z,27.60
2024-01-24T07:15:03.244Z,28.36
2024-01-24T07:16:02.765Z,28.48
2024-01-24T07:17:03.057Z,28.99
2024-01-24T07:18:08.820Z,29.60
2024-01-24T07:19:02.786Z,29.99
2024-01-24T07:20:02.772Z,30.20
2024-01-24T07:21:03.465Z,30.28
2024-01-24T07:22:04.886Z,30.29
2024-01-24T07:23:02.770Z,30.36
2024-01-24T07:24:02.752Z,30.87
2024-01-24T07:25:09.455Z,30.76
2024-01-24T07:26:02.746Z,30.67
2024-01-24T07:27:02.756Z,30.54
2024-01-24T07:28:03.102Z,30.68
2024-01-24T07:29:02.756Z,30.66
2024-01-24T07:30:02.762Z,30.75
2024-01-24T07:31:02.794Z,30.79
2024-01-24T07:32:05.487Z,30.77
2024-01-24T07:33:02.822Z,30.77
2024-01-24T07:34:02.897Z,30.83
2024-01-24T07:35:02.933Z,30.87
2024-01-24T07:36:02.763Z,30.77
2024-01-24T07:37:02.786Z,30.92
2024-01-24T07:38:02.754Z,30.87
2024-01-24T07:39:02.769Z,30.93
2024-01-24T07:40:02.838Z,30.91
2024-01-24T07:41:02.741Z,30.84
2024-01-24T07:42:02.755Z,31.03
2024-01-24T07:43:02.898Z,31.10
2024-01-24T07:44:03.707Z,31.27
2024-01-24T07:45:02.757Z,31.22
2024-01-24T07:46:03.590Z,31.30
2024-01-24T07:47:02.930Z,31.30
2024-01-24T07:48:03.083Z,31.36
2024-01-24T07:49:03.411Z,31.43
2024-01-24T07:50:02.871Z,31.43
2024-01-24T07:51:02.961Z,31.53
2024-01-24T07:52:02.809Z,31.57
2024-01-24T07:53:02.981Z,31.77
2024-01-24T07:54:02.794Z,31.64
2024-01-24T07:55:02.805Z,31.54
2024-01-24T07:56:11.093Z,31.65
2024-01-24T07:57:02.771Z,31.81
2024-01-24T07:58:11.007Z,31.85
2024-01-24T07:59:02.975Z,31.87
2024-01-24T08:00:02.773Z,31.88
2024-01-24T08:01:02.878Z,31.93
2024-01-24T08:02:03.057Z,31.99
2024-01-24T08:03:01.790Z,32.09
2024-01-24T08:04:03.108Z,32.09
2024-01-24T08:05:03.274Z,32.10
2024-01-24T08:06:02.818Z,32.15
2024-01-24T08:07:02.848Z,32.15
2024-01-24T08:08:02.806Z,32.27
2024-01-24T08:09:02.801Z,32.31
2024-01-24T08:10:02.869Z,32.36
2024-01-24T08:11:03.476Z,32.35
2024-01-24T08:12:03.475Z,32.32
2024-01-24T08:13:03.003Z,32.26
2024-01-24T08:14:02.836Z,32.32
2024-01-24T08:15:02.823Z,32.46
2024-01-24T08:16:09.532Z,32.46
2024-01-24T08:17:02.996Z,32.48
2024-01-24T08:18:02.914Z,32.48
2024-01-24T08:19:03.131Z,32.50
2024-01-24T08:20:02.944Z,32.50
2024-01-24T08:21:04.941Z,32.48
2024-01-24T08:22:02.929Z,32.38
2024-01-24T08:23:02.850Z,32.37
2024-01-24T08:24:02.864Z,32.41
2024-01-24T08:25:02.883Z,32.51
2024-01-24T08:26:02.882Z,32.65
2024-01-24T08:27:03.031Z,32.42
2024-01-24T08:28:03.081Z,32.37
2024-01-24T08:29:02.983Z,32.29
2024-01-24T08:30:02.868Z,28.73
2024-01-24T08:31:02.910Z,30.33
2024-01-24T08:32:02.859Z,29.10
2024-01-24T08:33:03.037Z,28.82
2024-01-24T08:34:03.132Z,27.24
2024-01-24T08:35:03.023Z,27.87
2024-01-24T08:36:02.897Z,28.32
2024-01-24T08:37:02.903Z,28.75
2024-01-24T08:38:03.018Z,29.39
2024-01-24T08:39:03.001Z,29.53
2024-01-24T08:40:02.894Z,29.70
2024-01-24T08:41:02.893Z,29.86
2024-01-24T08:42:03.495Z,30.38
2024-01-24T08:43:02.986Z,30.73
2024-01-24T08:44:03.003Z,30.80
2024-01-24T08:45:02.885Z,30.86
2024-01-24T08:46:02.925Z,31.30
2024-01-24T08:47:02.881Z,31.30
2024-01-24T08:48:03.002Z,31.98
2024-01-24T08:49:03.101Z,31.86
2024-01-24T08:50:03.066Z,31.76
2024-01-24T08:51:03.148Z,31.76
2024-01-24T08:52:02.961Z,32.08
2024-01-24T08:53:02.900Z,32.17
2024-01-24T08:54:02.915Z,32.47
2024-01-24T08:55:03.098Z,33.43
2024-01-24T08:56:03.928Z,33.45
2024-01-24T08:57:02.888Z,33.26
2024-01-24T08:58:03.355Z,33.20
2024-01-24T08:59:02.906Z,33.23
2024-01-24T09:00:06.694Z,33.12
2024-01-24T09:01:03.040Z,33.02
2024-01-24T09:02:03.043Z,33.05
2024-01-24T09:03:03.051Z,33.12
2024-01-24T09:04:03.229Z,33.00
2024-01-24T09:05:03.051Z,32.94
2024-01-24T09:06:03.161Z,32.91
2024-01-24T09:07:03.086Z,32.83
2024-01-24T09:08:03.067Z,32.81
2024-01-24T09:09:02.974Z,32.75
2024-01-24T09:10:03.041Z,32.71
2024-01-24T09:11:02.972Z,32.75
2024-01-24T09:12:02.969Z,32.69
2024-01-24T09:13:03.028Z,32.54
2024-01-24T09:14:02.984Z,32.63
2024-01-24T09:15:02.991Z,32.51
2024-01-24T09:16:03.037Z,32.48
2024-01-24T09:17:03.013Z,32.51
2024-01-24T09:18:03.746Z,32.49
2024-01-24T09:19:03.648Z,32.53
2024-01-24T09:20:03.789Z,32.53
2024-01-24T09:21:03.521Z,32.56
2024-01-24T09:22:03.746Z,32.61
2024-01-24T09:23:03.493Z,32.61
2024-01-24T09:24:03.599Z,32.61
2024-01-24T09:25:06.652Z,32.64
2024-01-24T09:26:03.424Z,32.64
2024-01-24T09:27:04.004Z,32.61
2024-01-24T09:28:03.477Z,32.67
2024-01-24T09:29:06.027Z,32.74
2024-01-24T09:30:03.503Z,32.76
2024-01-24T09:31:03.439Z,32.72
2024-01-24T09:32:04.018Z,32.70
2024-01-24T09:33:06.086Z,32.75
2024-01-24T09:34:03.720Z,32.81
2024-01-24T09:35:03.667Z,32.88
2024-01-24T09:36:06.589Z,32.92
2024-01-24T09:37:03.400Z,32.98
2024-01-24T09:38:04.070Z,32.98
2024-01-24T09:39:03.401Z,33.04
2024-01-24T09:40:03.642Z,33.08
2024-01-24T09:41:04.026Z,33.23
2024-01-24T09:42:03.660Z,29.71
2024-01-24T09:43:03.619Z,28.67
2024-01-24T09:44:03.505Z,29.91
2024-01-24T09:45:06.167Z,29.64
2024-01-24T09:46:11.493Z,30.34
2024-01-24T09:47:04.517Z,30.98
2024-01-24T09:48:04.077Z,31.98
2024-01-24T09:49:03.644Z,32.36
2024-01-24T09:50:03.505Z,32.74
2024-01-24T09:51:06.002Z,33.27
2024-01-24T09:52:03.534Z,33.57
2024-01-24T09:53:08.506Z,33.86
2024-01-24T09:54:04.512Z,34.16
2024-01-24T09:55:03.657Z,34.11
2024-01-24T09:56:03.516Z,34.22
2024-01-24T09:57:03.588Z,34.23
2024-01-24T09:58:04.160Z,34.17
2024-01-24T09:59:06.557Z,33.96
2024-01-24T10:00:03.570Z,33.86
2024-01-24T10:01:03.651Z,33.84
2024-01-24T10:02:03.597Z,34.28
2024-01-24T10:03:05.596Z,33.87
2024-01-24T10:04:05.696Z,34.14
2024-01-24T10:05:04.005Z,34.31
2024-01-24T10:06:03.614Z,34.43
2024-01-24T10:07:03.686Z,34.59
2024-01-24T10:08:04.010Z,34.93
2024-01-24T10:09:06.105Z,34.97
2024-01-24T10:10:03.605Z,34.81
2024-01-24T10:11:04.500Z,34.92
2024-01-24T10:12:06.502Z,35.20
2024-01-24T10:13:07.335Z,34.84
2024-01-24T10:14:03.603Z,34.80
2024-01-24T10:15:03.590Z,34.70
2024-01-24T10:16:04.885Z,34.95
2024-01-24T10:17:03.633Z,35.01
2024-01-24T10:18:04.135Z,34.88
2024-01-24T10:19:03.702Z,34.68
2024-01-24T10:20:03.688Z,34.71
2024-01-24T10:21:03.622Z,35.19
2024-01-24T10:22:04.756Z,36.46
2024-01-24T10:23:04.062Z,36.42
2024-01-24T10:24:03.629Z,36.49
2024-01-24T10:25:03.734Z,36.36
2024-01-24T10:26:04.043Z,36.36
2024-01-24T10:27:03.600Z,36.49
2024-01-24T10:28:04.096Z,36.35
2024-01-24T10:29:03.627Z,36.10
2024-01-24T10:30:03.602Z,35.85
2024-01-24T10:31:03.674Z,35.91
2024-01-24T10:32:03.753Z,35.66
2024-01-24T10:33:04.176Z,33.46
2024-01-24T10:34:03.689Z,32.09
2024-01-24T10:35:03.749Z,31.18
2024-01-24T10:36:10.564Z,30.86
2024-01-24T10:37:03.669Z,31.18
2024-01-24T10:38:04.033Z,32.18
2024-01-24T10:39:03.642Z,33.11
2024-01-24T10:40:03.710Z,33.41
2024-01-24T10:41:03.631Z,33.60
2024-01-24T10:42:06.489Z,33.44
2024-01-24T10:43:04.053Z,33.48
2024-01-24T10:44:03.652Z,33.45
2024-01-24T10:45:04.061Z,33.49
2024-01-24T10:46:03.688Z,33.45
2024-01-24T10:47:03.624Z,33.49
2024-01-24T10:48:04.080Z,33.42
2024-01-24T10:49:03.801Z,33.48
2024-01-24T10:50:03.728Z,33.40
2024-01-24T10:51:03.639Z,33.51
2024-01-24T10:52:03.732Z,33.45
2024-01-24T10:53:03.641Z,33.51
2024-01-24T10:54:03.634Z,33.55
2024-01-24T10:55:03.743Z,33.52
2024-01-24T10:56:04.034Z,33.56
2024-01-24T10:57:03.627Z,33.53
2024-01-24T10:58:05.836Z,33.61
2024-01-24T10:59:03.636Z,33.58
2024-01-24T11:00:03.641Z,33.68
2024-01-24T11:01:04.706Z,33.67
2024-01-24T11:02:03.639Z,33.50
2024-01-24T11:03:04.125Z,33.72
2024-01-24T11:04:05.159Z,33.85
2024-01-24T11:05:03.656Z,29.70
2024-01-24T11:06:03.628Z,30.02
2024-01-24T11:07:03.676Z,30.92
2024-01-24T11:08:04.032Z,30.74
2024-01-24T11:09:03.652Z,31.50
2024-01-24T11:10:04.604Z,32.15
2024-01-24T11:11:03.633Z,32.85
2024-01-24T11:12:03.636Z,32.85
2024-01-24T11:13:05.125Z,32.94
2024-01-24T11:14:03.732Z,33.61
2024-01-24T11:15:03.768Z,34.23
2024-01-24T11:16:05.286Z,34.69
2024-01-24T11:17:03.847Z,34.85
2024-01-24T11:18:04.070Z,34.99
2024-01-24T11:19:03.973Z,35.12
2024-01-24T11:20:04.031Z,35.07
2024-01-24T11:21:03.822Z,35.05
2024-01-24T11:22:10.424Z,34.97
2024-01-24T11:23:04.045Z,34.91
2024-01-24T11:24:03.829Z,34.95
2024-01-24T11:25:04.952Z,34.84
2024-01-24T11:26:03.895Z,34.78
2024-01-24T11:27:03.908Z,34.77
2024-01-24T11:28:04.206Z,31.50
2024-01-24T11:29:03.975Z,30.60
2024-01-24T11:30:04.034Z,30.74
2024-01-24T11:31:04.192Z,31.57
2024-01-24T11:32:06.911Z,33.99
2024-01-24T11:33:04.630Z,34.73
2024-01-24T11:34:04.149Z,35.10
2024-01-24T11:35:04.250Z,35.14
2024-01-24T11:36:04.098Z,35.39
2024-01-24T11:37:04.214Z,35.50
2024-01-24T11:38:12.658Z,35.73
2024-01-24T11:39:04.106Z,36.02
2024-01-24T11:40:04.147Z,36.11
2024-01-24T11:41:04.121Z,36.10
2024-01-24T11:42:04.563Z,36.12
2024-01-24T11:43:05.172Z,36.07
2024-01-24T11:44:04.109Z,36.04
2024-01-24T11:45:04.117Z,35.92
2024-01-24T11:46:04.224Z,35.79
2024-01-24T11:47:04.545Z,35.54
2024-01-24T11:48:04.201Z,35.41
2024-01-24T11:49:04.224Z,35.27
2024-01-24T11:50:04.177Z,35.08
2024-01-24T11:51:04.132Z,35.07
2024-01-24T11:52:04.592Z,34.96
2024-01-24T11:53:04.135Z,34.90
2024-01-24T11:54:04.159Z,34.86
2024-01-24T11:55:04.208Z,34.77
2024-01-24T11:56:04.136Z,34.72
2024-01-24T11:57:04.609Z,34.71
2024-01-24T11:58:04.236Z,34.74
2024-01-24T11:59:04.142Z,34.74
2024-01-24T12:00:11.049Z,34.68
2024-01-24T12:01:06.220Z,34.61
2024-01-24T12:02:04.132Z,34.59
2024-01-24T12:03:04.558Z,34.59
2024-01-24T12:04:04.206Z,34.69
2024-01-24T12:05:04.196Z,34.65
2024-01-24T12:06:04.171Z,34.59
2024-01-24T12:07:04.668Z,34.71
2024-01-24T12:08:04.134Z,34.74
2024-01-24T12:09:04.141Z,34.83
2024-01-24T12:10:04.225Z,34.72
2024-01-24T12:11:07.053Z,34.85
2024-01-24T12:12:04.560Z,34.83
2024-01-24T12:13:04.208Z,34.80
2024-01-24T12:14:05.064Z,33.97
2024-01-24T12:15:04.165Z,34.36
2024-01-24T12:16:04.595Z,34.46
2024-01-24T12:17:05.090Z,34.29
2024-01-24T12:18:05.135Z,34.29
2024-01-24T12:19:04.922Z,34.36
2024-01-24T12:20:04.700Z,34.25
2024-01-24T12:21:04.606Z,34.17
2024-01-24T12:22:04.592Z,34.11
2024-01-24T12:23:05.081Z,33.97
2024-01-24T12:24:04.572Z,33.90
2024-01-24T12:25:04.634Z,33.84
2024-01-24T12:26:04.586Z,33.73
2024-01-24T12:27:04.588Z,33.67
2024-01-24T12:28:05.083Z,33.53
2024-01-24T12:29:04.616Z,33.52
2024-01-24T12:30:04.616Z,33.38
2024-01-24T12:31:04.729Z,33.33
2024-01-24T12:32:04.673Z,33.30
2024-01-24T12:33:05.122Z,33.22
2024-01-24T12:34:04.864Z,33.16
2024-01-24T12:35:04.857Z,33.07
2024-01-24T12:36:04.758Z,32.92
2024-01-24T12:37:04.988Z,32.92
2024-01-24T12:38:04.816Z,32.97
2024-01-24T12:39:05.757Z,32.89
2024-01-24T12:40:07.602Z,32.73
2024-01-24T12:41:05.622Z,32.72
2024-01-24T12:42:05.535Z,32.65
2024-01-24T12:43:05.138Z,32.65
2024-01-24T12:44:07.581Z,32.62
2024-01-24T12:45:04.838Z,32.64
2024-01-24T12:46:04.909Z,32.53
2024-01-24T12:47:04.845Z,32.46
2024-01-24T12:48:06.644Z,32.52
2024-01-24T12:49:05.649Z,32.46
2024-01-24T12:50:05.162Z,32.36
2024-01-24T12:51:11.609Z,32.45
2024-01-24T12:52:04.847Z,32.34
2024-01-24T12:53:05.096Z,32.27
2024-01-24T12:54:04.854Z,32.10
2024-01-24T12:55:04.968Z,32.20
2024-01-24T12:56:04.864Z,32.11
2024-01-24T12:57:04.858Z,32.10
2024-01-24T12:58:05.123Z,32.10
2024-01-24T12:59:04.852Z,32.04
2024-01-24T13:00:04.856Z,31.97
2024-01-24T13:01:05.058Z,31.94
2024-01-24T13:02:04.889Z,31.93
2024-01-24T13:03:05.071Z,31.94
2024-01-24T13:04:04.925Z,29.98
2024-01-24T13:05:04.969Z,29.86
2024-01-24T13:06:05.724Z,30.28
2024-01-24T13:07:04.933Z,30.56
2024-01-24T13:08:05.074Z,30.45
2024-01-24T13:09:04.884Z,30.42
2024-01-24T13:10:07.098Z,31.73
2024-01-24T13:11:04.939Z,41.32
2024-01-24T13:12:04.955Z,41.94
2024-01-24T13:13:05.000Z,39.79
2024-01-24T13:14:04.875Z,37.92
2024-01-24T13:15:04.870Z,44.00
2024-01-24T13:16:04.881Z,43.38
2024-01-24T13:17:04.862Z,45.99
2024-01-24T13:18:04.940Z,47.73
2024-01-24T13:19:07.658Z,47.25
2024-01-24T13:20:04.874Z,45.56
2024-01-24T13:21:04.882Z,44.48
2024-01-24T13:22:04.890Z,44.13
2024-01-24T13:23:04.897Z,44.27
2024-01-24T13:24:04.891Z,41.96
2024-01-24T13:25:05.621Z,39.70
2024-01-24T13:26:05.098Z,38.62
2024-01-24T13:27:04.870Z,37.57
2024-01-24T13:28:05.027Z,36.88
2024-01-24T13:29:04.886Z,36.37
2024-01-24T13:30:04.882Z,36.00
2024-01-24T13:31:04.916Z,35.65
2024-01-24T13:32:04.883Z,35.50
2024-01-24T13:33:05.140Z,35.26
2024-01-24T13:34:04.955Z,35.17
2024-01-24T13:35:04.966Z,34.99
2024-01-24T13:36:04.982Z,34.95
2024-01-24T13:37:11.616Z,34.78
2024-01-24T13:38:05.019Z,34.73
2024-01-24T13:39:05.028Z,34.52
2024-01-24T13:40:05.057Z,34.47
2024-01-24T13:41:05.077Z,34.34
2024-01-24T13:42:05.036Z,34.20
2024-01-24T13:43:06.091Z,34.12
2024-01-24T13:44:05.093Z,34.13
2024-01-24T13:45:05.030Z,34.09